Time,TemperatureF,DewpointF,PressureIn,WindDirection,WindDirectionDegrees,WindSpeedMPH,WindSpeedGustMPH,Humidity,HourlyPrecipIn,Conditions,Clouds,dailyrainin,SoftwareType,DateUTC
2013-03-04 13:15:00,58.1,33.2,30.09,North,8,16.0,16.0,39,0.00,,,0.00,Wunderground v.1.15,2013-03-04 18:15:00,
2013-03-04 13:25:00,59.3,34.3,30.09,NNE,13,11.0,11.0,39,0.00,,,0.00,Wunderground v.1.15,2013-03-04 18:25:00,
2013-03-04 13:30:00,59.6,33.3,30.08,North,0,11.0,11.0,37,0.00,,,0.00,Wunderground v.1.15,2013-03-04 18:30:00,
2013-03-04 13:40:00,60.2,31.7,30.08,North,356,8.0,11.0,34,0.00,,,0.00,Wunderground v.1.15,2013-03-04 18:40:00,
2013-03-04 13:45:00,60.1,33.0,30.07,North,357,9.0,9.0,36,0.00,,,0.00,Wunderground v.1.15,2013-03-04 18:45:00,
2013-03-04 13:55:00,60.4,31.9,30.07,North,8,8.0,8.0,34,0.00,,,0.00,Wunderground v.1.15,2013-03-04 18:55:00,
2013-03-04 14:00:00,60.7,32.9,30.07,North,354,9.0,12.0,35,0.00,,,0.00,Wunderground v.1.15,2013-03-04 19:00:00,
2013-03-04 14:05:00,59.8,31.3,30.07,NNW,345,11.0,18.0,34,0.00,,,0.00,Wunderground v.1.15,2013-03-04 19:05:00,
2013-03-04 14:10:00,59.2,32.2,30.07,NW,319,14.0,14.0,36,0.00,,,0.00,Wunderground v.1.15,2013-03-04 19:10:00,
2013-03-04 14:15:00,59.2,27.7,30.07,NW,322,15.0,17.0,30,0.00,,,0.00,Wunderground v.1.15,2013-03-04 19:15:00,
2013-03-04 14:25:00,60.1,32.3,30.07,West,278,12.0,24.0,35,0.00,,,0.00,Wunderground v.1.15,2013-03-04 19:25:00,
2013-03-04 14:30:00,59.8,29.9,30.06,NW,309,13.0,24.0,32,0.00,,,0.00,Wunderground v.1.15,2013-03-04 19:30:00,
2013-03-04 14:40:00,59.6,32.6,30.06,NNW,327,15.0,24.0,36,0.00,,,0.00,Wunderground v.1.15,2013-03-04 19:40:00,
2013-03-04 14:50:00,59.3,32.3,30.06,NW,325,17.0,17.0,36,0.00,,,0.00,Wunderground v.1.15,2013-03-04 19:50:00,
2013-03-04 14:55:00,59.8,32.1,30.06,West,277,15.0,20.0,35,0.00,,,0.00,Wunderground v.1.15,2013-03-04 19:55:00,
2013-03-04 15:05:00,58.9,36.4,30.06,West,262,14.0,15.0,43,0.00,,,0.00,Wunderground v.1.15,2013-03-04 20:05:00,
2013-03-04 15:15:00,58.4,36.6,30.06,WSW,252,16.0,17.0,44,0.00,,,0.00,Wunderground v.1.15,2013-03-04 20:15:00,
2013-03-04 15:20:00,58.4,37.7,30.06,West,273,16.0,16.0,46,0.00,,,0.00,Wunderground v.1.15,2013-03-04 20:20:00,
2013-03-04 15:30:00,58.3,37.0,30.06,NW,321,16.0,19.0,45,0.00,,,0.00,Wunderground v.1.15,2013-03-04 20:30:00,
2013-03-04 15:40:00,58.6,39.5,30.06,WNW,285,14.0,14.0,49,0.00,,,0.00,Wunderground v.1.15,2013-03-04 20:40:00,
2013-03-04 15:45:00,58.6,38.4,30.06,WNW,302,14.0,17.0,47,0.00,,,0.00,Wunderground v.1.15,2013-03-04 20:45:00,
2013-03-04 15:55:00,58.1,38.5,30.06,WNW,296,19.0,23.0,48,0.00,,,0.00,Wunderground v.1.15,2013-03-04 20:55:00,
2013-03-04 16:00:00,58.4,39.3,30.06,West,270,17.0,20.0,49,0.00,,,0.00,Wunderground v.1.15,2013-03-04 21:00:00,
2013-03-04 16:10:00,58.1,40.6,30.06,WNW,293,18.0,26.0,52,0.00,,,0.00,Wunderground v.1.15,2013-03-04 21:10:00,
2013-03-04 16:20:00,58.0,41.4,30.06,West,269,18.0,18.0,54,0.00,,,0.00,Wunderground v.1.15,2013-03-04 21:20:00,
2013-03-04 16:25:00,57.6,41.1,30.06,West,274,19.0,19.0,54,0.00,,,0.00,Wunderground v.1.15,2013-03-04 21:25:00,
2013-03-04 16:35:00,57.5,42.8,30.06,WSW,244,18.0,27.0,58,0.00,,,0.00,Wunderground v.1.15,2013-03-04 21:35:00,
2013-03-04 16:45:00,57.3,41.3,30.06,West,269,19.0,26.0,55,0.00,,,0.00,Wunderground v.1.15,2013-03-04 21:45:00,
2013-03-04 16:55:00,56.9,42.3,30.06,WNW,283,20.0,26.0,58,0.00,,,0.00,Wunderground v.1.15,2013-03-04 21:55:00,
2013-03-04 17:05:00,57.0,41.0,30.06,WNW,290,17.0,25.0,55,0.00,,,0.00,Wunderground v.1.15,2013-03-04 22:05:00,
2013-03-04 17:10:00,57.0,41.4,30.06,West,276,16.0,26.0,56,0.00,,,0.00,Wunderground v.1.15,2013-03-04 22:10:00,
2013-03-04 17:20:00,56.9,42.3,30.06,West,271,16.0,26.0,58,0.00,,,0.00,Wunderground v.1.15,2013-03-04 22:20:00,
2013-03-04 17:30:00,56.7,42.5,30.06,West,275,15.0,15.0,59,0.00,,,0.00,Wunderground v.1.15,2013-03-04 22:30:00,
2013-03-04 17:35:00,56.6,42.4,30.06,WNW,286,14.0,26.0,59,0.00,,,0.00,Wunderground v.1.15,2013-03-04 22:35:00,
2013-03-04 17:45:00,56.3,43.0,30.07,West,278,17.0,26.0,61,0.00,,,0.00,Wunderground v.1.15,2013-03-04 22:45:00,
2013-03-04 17:50:00,56.2,42.5,30.07,NW,307,15.0,15.0,60,0.00,,,0.00,Wunderground v.1.15,2013-03-04 22:50:00,
2013-03-04 18:00:00,55.9,43.1,30.07,NW,309,15.0,15.0,62,0.00,,,0.00,Wunderground v.1.15,2013-03-04 23:00:00,
2013-03-04 18:10:00,55.6,42.8,30.07,NW,309,15.0,20.0,62,0.00,,,0.00,Wunderground v.1.15,2013-03-04 23:10:00,
2013-03-04 18:20:00,55.4,43.4,30.08,NW,311,12.0,15.0,64,0.00,,,0.00,Wunderground v.1.15,2013-03-04 23:20:00,
2013-03-04 18:25:00,55.1,43.1,30.08,WNW,301,12.0,15.0,64,0.00,,,0.00,Wunderground v.1.15,2013-03-04 23:25:00,
2013-03-04 18:35:00,54.8,43.3,30.08,NW,308,9.0,11.0,65,0.00,,,0.00,Wunderground v.1.15,2013-03-04 23:35:00,
2013-03-04 18:45:00,54.7,43.6,30.08,NW,321,10.0,10.0,66,0.00,,,0.00,Wunderground v.1.15,2013-03-04 23:45:00,
2013-03-04 18:50:00,54.5,43.4,30.08,NW,316,8.0,11.0,66,0.00,,,0.00,Wunderground v.1.15,2013-03-04 23:50:00,
2013-03-04 19:00:00,54.2,43.5,30.07,NW,319,4.0,13.0,67,0.00,,,0.00,Wunderground v.1.15,2013-03-05 00:00:00,
2013-03-04 19:10:00,54.1,43.0,30.07,NW,314,2.0,2.0,66,0.00,,,0.00,Wunderground v.1.15,2013-03-05 00:10:00,
2013-03-04 19:15:00,53.8,42.7,30.08,NW,314,0.0,4.0,66,0.00,,,0.00,Wunderground v.1.15,2013-03-05 00:15:00,
2013-03-04 19:25:00,53.9,43.2,30.08,NW,315,1.0,25.0,67,0.00,,,0.00,Wunderground v.1.15,2013-03-05 00:25:00,
2013-03-04 19:35:00,53.9,43.2,30.08,NW,317,2.0,25.0,67,0.00,,,0.00,Wunderground v.1.15,2013-03-05 00:35:00,
2013-03-04 19:45:00,53.9,43.6,30.08,NW,318,0.0,25.0,68,0.00,,,0.00,Wunderground v.1.15,2013-03-05 00:45:00,
2013-03-04 19:50:00,53.9,43.6,30.08,NW,317,0.0,25.0,68,0.00,,,0.00,Wunderground v.1.15,2013-03-05 00:50:00,
2013-03-04 20:00:00,53.9,44.0,30.08,NW,318,0.0,25.0,69,0.00,,,0.00,Wunderground v.1.15,2013-03-05 01:00:00,
2013-03-04 20:10:00,53.6,43.7,30.08,NW,318,0.0,25.0,69,0.00,,,0.00,Wunderground v.1.15,2013-03-05 01:10:00,
2013-03-04 20:15:00,53.5,43.6,30.07,NW,318,0.0,25.0,69,0.00,,,0.00,Wunderground v.1.15,2013-03-05 01:15:00,
2013-03-04 20:25:00,53.2,43.3,30.07,NW,318,0.0,25.0,69,0.00,,,0.00,Wunderground v.1.15,2013-03-05 01:25:00,
2013-03-04 20:35:00,52.6,43.1,30.07,NW,318,0.0,25.0,70,0.00,,,0.00,Wunderground v.1.15,2013-03-05 01:35:00,
2013-03-04 20:40:00,52.2,42.7,30.07,NW,318,0.0,25.0,70,0.00,,,0.00,Wunderground v.1.15,2013-03-05 01:40:00,
2013-03-04 20:50:00,51.4,42.7,30.08,NW,318,0.0,25.0,72,0.00,,,0.00,Wunderground v.1.15,2013-03-05 01:50:00,
2013-03-04 21:00:00,50.7,42.4,30.08,NW,318,0.0,25.0,73,0.00,,,0.00,Wunderground v.1.15,2013-03-05 02:00:00,
2013-03-04 21:10:00,50.1,42.1,30.08,NW,318,0.0,0.0,74,0.00,,,0.00,Wunderground v.1.15,2013-03-05 02:10:00,
2013-03-04 21:20:00,49.8,42.2,30.08,NW,318,0.0,0.0,75,0.00,,,0.00,Wunderground v.1.15,2013-03-05 02:20:00,
2013-03-04 21:25:00,49.6,42.0,30.08,NW,318,0.0,0.0,75,0.00,,,0.00,Wunderground v.1.15,2013-03-05 02:25:00,
2013-03-04 21:35:00,49.5,42.6,30.08,NW,318,0.0,0.0,77,0.00,,,0.00,Wunderground v.1.15,2013-03-05 02:35:00,
2013-03-04 21:45:00,48.9,42.3,30.08,NW,318,0.0,0.0,78,0.00,,,0.00,Wunderground v.1.15,2013-03-05 02:45:00,
2013-03-04 21:55:00,48.5,42.3,30.08,NW,318,0.0,0.0,79,0.00,,,0.00,Wunderground v.1.15,2013-03-05 02:55:00,
2013-03-04 22:00:00,48.3,42.1,30.09,NW,318,0.0,0.0,79,0.00,,,0.00,Wunderground v.1.15,2013-03-05 03:00:00,
2013-03-04 22:10:00,48.0,42.1,30.09,NW,318,0.0,0.0,80,0.00,,,0.00,Wunderground v.1.15,2013-03-05 03:10:00,
2013-03-04 22:20:00,47.7,42.2,30.09,NW,318,0.0,0.0,81,0.00,,,0.00,Wunderground v.1.15,2013-03-05 03:20:00,
2013-03-04 22:25:00,47.6,42.1,30.09,NW,318,0.0,0.0,81,0.00,,,0.00,Wunderground v.1.15,2013-03-05 03:25:00,
2013-03-04 22:35:00,47.3,41.8,30.09,NW,318,0.0,0.0,81,0.00,,,0.00,Wunderground v.1.15,2013-03-05 03:35:00,
2013-03-04 22:45:00,46.8,41.6,30.09,NW,318,0.0,0.0,82,0.00,,,0.00,Wunderground v.1.15,2013-03-05 03:45:00,
2013-03-04 22:50:00,46.7,41.5,30.09,NW,318,0.0,0.0,82,0.00,,,0.00,Wunderground v.1.15,2013-03-05 03:50:00,
2013-03-04 23:00:00,46.4,41.5,30.09,NW,318,0.0,0.0,83,0.00,,,0.00,Wunderground v.1.15,2013-03-05 04:00:00,
2013-03-04 23:10:00,46.1,41.2,30.09,NW,318,0.0,0.0,83,0.00,,,0.00,Wunderground v.1.15,2013-03-05 04:10:00,
2013-03-04 23:15:00,46.0,41.1,30.09,NW,318,0.0,0.0,83,0.00,,,0.00,Wunderground v.1.15,2013-03-05 04:15:00,
2013-03-04 23:25:00,45.8,41.2,30.09,NW,319,0.0,0.0,84,0.00,,,0.00,Wunderground v.1.15,2013-03-05 04:25:00,
2013-03-04 23:35:00,46.1,41.5,30.08,NW,320,0.0,0.0,84,0.00,,,0.00,Wunderground v.1.15,2013-03-05 04:35:00,
2013-03-04 23:45:00,46.5,41.3,30.08,NW,321,0.0,0.0,82,0.00,,,0.00,Wunderground v.1.15,2013-03-05 04:45:00,
2013-03-04 23:55:00,46.5,41.0,30.08,NW,321,0.0,0.0,81,0.00,,,0.00,Wunderground v.1.15,2013-03-05 04:55:00,